DNPO Airport Information

Runway Information
Runway 03 Length 9846 ft width 197 ft Elevation 82 ft Threshold N/A Heading 28
Runway 21 Length 9846 ft Width 197 ft Elevation 87 ft Threshold N/A Heading 208
Airport Frequencies
Type APP Name APP Frequency 124.9 MHZ
Type ATIS Name ATIS Frequency 123.8 MHZ
Type TWR Name TWR Frequency 118.9 MHZ
Airport Navaids
Type NDB Name Port Harcourt Frequency 370 KHZ
Type VOR-DME Name Port Harcourt Frequency 113500 KHZ
Airport Weather Information & NOTAM
ADDS - METARS form results

(0417 UTC 17 January 2023)
Data provider http://aviationweather.gov/metar/data/
 
METAR text: DNPO 170400Z 00000KT 0100 FG VV003 20/19 Q1009 NOSIG
Conditions at: DNPO (PORT HARCOURT , NG) observed 0400 UTC 17 January 2023
Temperature: 20.0°C (68°F)
Dewpoint: 19.0°C (66°F) [RH = 94%]
Pressure (altimeter): 29.79 inches Hg (1009.0 mb)
Winds: calm
Visibility: 0.06 miles (0.10 km)
Ceiling: indefinite ceiling with vertical visibility of 300 feet AGL
Clouds: obscured sky
Weather: FG  (fog)